createdAt,value
2023-05-09T00:01:57.135Z,26.00
2023-05-09T00:06:08.227Z,25.80
2023-05-09T00:10:37.405Z,28.40
2023-05-09T00:14:48.194Z,23.80
2023-05-09T00:19:17.182Z,23.20
2023-05-09T00:23:26.465Z,24.20
2023-05-09T00:27:17.517Z,24.90
2023-05-09T00:31:26.413Z,27.20
2023-05-09T00:35:55.456Z,26.70
2023-05-09T00:40:04.775Z,25.30
2023-05-09T00:44:33.585Z,24.30
2023-05-09T00:48:34.799Z,25.10
2023-05-09T00:52:43.970Z,24.20
2023-05-09T00:56:52.872Z,23.40
2023-05-09T01:01:01.642Z,23.50
2023-05-09T01:05:12.870Z,22.90
2023-05-09T01:09:23.116Z,26.30
2023-05-09T01:13:36.713Z,21.10
2023-05-09T01:17:54.892Z,24.00
2023-05-09T01:22:08.103Z,22.60
2023-05-09T01:26:38.290Z,23.00
2023-05-09T01:30:43.164Z,22.30
2023-05-09T01:35:14.165Z,21.60
2023-05-09T01:39:42.925Z,21.80
2023-05-09T01:43:59.893Z,23.80
2023-05-09T01:48:29.226Z,23.00
2023-05-09T01:52:58.067Z,23.20
2023-05-09T01:56:48.290Z,26.20
2023-05-09T02:00:57.385Z,26.30
2023-05-09T02:05:06.834Z,25.50
2023-05-09T02:09:16.027Z,24.00
2023-05-09T02:13:25.062Z,25.80
2023-05-09T02:17:34.272Z,25.10
2023-05-09T02:21:30.833Z,28.20
2023-05-09T02:25:59.707Z,23.30
2023-05-09T02:30:24.979Z,25.90
2023-05-09T02:34:53.868Z,25.70
2023-05-09T02:39:23.329Z,28.00
2023-05-09T02:43:47.840Z,26.40
2023-05-09T02:48:16.967Z,24.30
2023-05-09T02:52:41.057Z,23.50
2023-05-09T02:56:49.946Z,26.20
2023-05-09T03:00:59.146Z,24.90
2023-05-09T03:05:27.927Z,27.30
2023-05-09T03:09:54.899Z,31.80
2023-05-09T03:14:07.692Z,29.80
2023-05-09T03:18:17.354Z,34.30
2023-05-09T03:22:27.050Z,28.60
2023-05-09T03:26:44.145Z,26.90
2023-05-09T03:31:13.198Z,30.50
2023-05-09T03:35:42.108Z,27.70
2023-05-09T03:39:54.864Z,27.80
2023-05-09T03:43:44.202Z,30.10
2023-05-09T03:48:13.002Z,31.20
2023-05-09T03:52:41.953Z,29.50
2023-05-09T03:57:10.551Z,28.80
2023-05-09T04:01:40.287Z,28.80
2023-05-09T04:05:50.577Z,28.80
2023-05-09T04:10:00.965Z,28.60
2023-05-09T04:14:19.613Z,32.00
2023-05-09T04:18:50.045Z,29.10
2023-05-09T04:23:22.157Z,34.40
2023-05-09T04:27:32.394Z,31.80
2023-05-09T04:31:46.113Z,29.70
2023-05-09T04:36:14.775Z,35.00
2023-05-09T04:40:44.497Z,30.40
2023-05-09T04:45:04.754Z,26.50
2023-05-09T04:49:33.738Z,29.70
2023-05-09T04:53:45.188Z,25.60
2023-05-09T04:58:14.833Z,27.50
2023-05-09T05:02:24.166Z,22.60
2023-05-09T05:06:53.927Z,29.00
2023-05-09T05:11:23.522Z,27.30
2023-05-09T05:15:52.981Z,27.80
2023-05-09T05:20:02.280Z,27.30
2023-05-09T05:24:31.633Z,34.80
2023-05-09T05:28:23.006Z,35.70
2023-05-09T05:32:52.554Z,32.90
2023-05-09T05:37:19.682Z,24.90
2023-05-09T05:41:48.579Z,15.00
2023-05-09T05:45:57.924Z,16.00
2023-05-09T05:50:29.493Z,16.70
2023-05-09T05:54:46.389Z,17.30
2023-05-09T05:58:55.673Z,14.00
2023-05-09T06:03:05.249Z,12.70
2023-05-09T06:07:23.206Z,12.00
2023-05-09T06:11:52.533Z,12.20
2023-05-09T06:16:21.599Z,12.70
2023-05-09T06:20:50.933Z,11.60
2023-05-09T06:25:19.502Z,12.20
2023-05-09T06:29:48.770Z,10.80
2023-05-09T06:34:18.052Z,13.70
2023-05-09T06:38:27.492Z,11.40
2023-05-09T06:42:56.558Z,10.10
2023-05-09T06:47:26.039Z,10.30
2023-05-09T06:51:55.610Z,12.10
2023-05-09T06:56:24.819Z,11.70
2023-05-09T07:00:55.130Z,13.20
2023-05-09T07:05:24.342Z,13.30
2023-05-09T07:09:37.930Z,10.80
2023-05-09T07:13:53.339Z,10.50
2023-05-09T07:18:22.946Z,9.10
2023-05-09T07:22:52.043Z,9.70
2023-05-09T07:27:21.063Z,7.90
2023-05-09T07:31:38.609Z,8.90
2023-05-09T07:36:07.937Z,9.70
2023-05-09T07:40:37.235Z,8.50
2023-05-09T07:45:06.814Z,12.90
2023-05-09T07:49:35.806Z,38.30
2023-05-09T07:54:05.943Z,8.50
2023-05-09T07:58:35.192Z,6.50
2023-05-09T08:03:04.676Z,10.50
2023-05-09T08:07:33.796Z,7.90
2023-05-09T08:12:04.000Z,13.90
2023-05-09T08:16:33.566Z,15.20
2023-05-09T08:21:02.917Z,7.90
2023-05-09T08:25:32.381Z,8.60
2023-05-09T08:30:02.421Z,17.40
2023-05-09T08:34:32.981Z,7.30
2023-05-09T08:38:47.215Z,7.70
2023-05-09T08:43:18.320Z,5.40
2023-05-09T08:47:47.811Z,6.60
2023-05-09T08:52:17.624Z,7.00
2023-05-09T08:56:48.968Z,12.50
2023-05-09T09:01:19.090Z,4.80
2023-05-09T09:05:48.584Z,8.90
2023-05-09T09:13:47.327Z,5.60
2023-05-09T09:17:35.590Z,25.50
2023-05-09T09:21:19.627Z,13.70
2023-05-09T09:25:07.370Z,9.10
2023-05-09T09:28:49.477Z,8.80
2023-05-09T09:32:37.858Z,7.40
2023-05-09T09:36:25.423Z,5.80
2023-05-09T09:40:13.252Z,7.00
2023-05-09T09:44:07.207Z,5.60
2023-05-09T09:47:50.116Z,8.30
2023-05-09T09:51:38.174Z,9.50
2023-05-09T09:55:16.134Z,6.10
2023-05-09T09:59:03.708Z,6.80
2023-05-09T10:03:00.624Z,6.80
2023-05-09T10:06:44.708Z,10.90
2023-05-09T10:10:33.663Z,7.30
2023-05-09T10:14:21.375Z,7.90
2023-05-09T10:18:10.255Z,4.90
2023-05-09T10:21:59.957Z,7.10
2023-05-09T10:26:20.571Z,8.10
2023-05-09T10:30:19.362Z,6.50
2023-05-09T10:34:08.117Z,4.90
2023-05-09T10:38:02.702Z,7.40
2023-05-09T10:41:49.392Z,7.30
2023-05-09T10:45:37.308Z,6.10
2023-05-09T10:49:45.152Z,27.80
2023-05-09T10:53:45.597Z,11.50
2023-05-09T10:57:38.644Z,44.90
2023-05-09T11:05:55.935Z,4.50
2023-05-09T11:10:03.963Z,8.30
2023-05-09T11:13:58.345Z,4.30
2023-05-09T11:18:26.210Z,7.20
2023-05-09T11:22:43.437Z,31.40
2023-05-09T11:26:51.750Z,10.50
2023-05-09T11:31:00.189Z,5.70
2023-05-09T11:34:50.824Z,4.90
2023-05-09T11:38:44.713Z,5.80
2023-05-09T11:42:50.312Z,6.20
2023-05-09T11:46:55.046Z,9.70
2023-05-09T11:50:51.139Z,11.30
2023-05-09T11:54:59.088Z,5.70
2023-05-09T11:59:12.069Z,8.80
2023-05-09T12:03:21.752Z,5.80
2023-05-09T12:07:10.720Z,6.40
2023-05-09T12:11:01.027Z,7.40
2023-05-09T12:14:38.324Z,5.60
2023-05-09T12:18:26.660Z,9.20
2023-05-09T12:22:16.477Z,6.10
2023-05-09T12:26:05.370Z,8.00
2023-05-09T12:30:14.852Z,8.90
2023-05-09T12:34:06.948Z,9.70
2023-05-09T12:37:59.299Z,7.60
2023-05-09T12:42:00.956Z,8.50
2023-05-09T12:46:04.076Z,8.10
2023-05-09T12:50:33.425Z,6.60
2023-05-09T12:55:05.228Z,8.20
2023-05-09T12:59:35.941Z,11.60
2023-05-09T13:03:26.385Z,6.90
2023-05-09T13:07:36.201Z,5.90
2023-05-09T13:11:25.538Z,7.90
2023-05-09T13:15:33.411Z,5.00
2023-05-09T13:19:23.583Z,16.50
2023-05-09T13:23:12.320Z,6.00
2023-05-09T13:27:20.389Z,30.90
2023-05-09T13:31:28.713Z,8.30
2023-05-09T13:35:37.046Z,19.30
2023-05-09T13:39:42.110Z,11.00
2023-05-09T13:43:30.105Z,8.80
2023-05-09T13:47:18.261Z,8.20
2023-05-09T13:51:07.520Z,8.30
2023-05-09T13:54:59.834Z,4.70
2023-05-09T13:59:21.471Z,8.20
2023-05-09T14:03:11.086Z,16.50
2023-05-09T14:07:12.728Z,6.20
2023-05-09T14:11:00.963Z,8.50
2023-05-09T14:14:49.547Z,13.40
2023-05-09T14:18:38.250Z,14.30
2023-05-09T14:22:31.660Z,9.60
2023-05-09T14:26:14.134Z,26.10
2023-05-09T14:30:05.216Z,7.30
2023-05-09T14:33:53.416Z,7.20
2023-05-09T14:37:42.102Z,5.20
2023-05-09T14:41:33.549Z,7.30
2023-05-09T14:45:23.336Z,8.80
2023-05-09T14:49:13.304Z,6.70
2023-05-09T14:53:06.595Z,9.10
2023-05-09T14:57:00.758Z,5.60
2023-05-09T15:00:53.689Z,23.60
2023-05-09T15:04:50.617Z,6.60
2023-05-09T15:08:39.683Z,6.20
2023-05-09T15:12:31.107Z,5.10
2023-05-09T15:16:26.248Z,7.20
2023-05-09T15:20:08.685Z,9.10
2023-05-09T15:23:57.557Z,4.50
2023-05-09T15:27:45.875Z,6.40
2023-05-09T15:31:35.683Z,23.30
2023-05-09T15:35:24.040Z,14.00
2023-05-09T15:39:11.884Z,6.60
2023-05-09T15:43:01.043Z,6.60
2023-05-09T15:46:46.262Z,9.30
2023-05-09T15:50:34.647Z,9.20
2023-05-09T15:54:35.637Z,8.00
2023-05-09T15:58:24.528Z,10.70
2023-05-09T16:02:14.251Z,6.30
2023-05-09T16:06:02.416Z,15.50
2023-05-09T16:09:16.571Z,6.70
2023-05-09T16:13:03.797Z,8.00
2023-05-09T16:16:51.721Z,7.20
2023-05-09T16:20:35.582Z,12.30
2023-05-09T16:24:12.858Z,23.00
2023-05-09T16:28:01.528Z,18.10
2023-05-09T16:31:43.068Z,8.30
2023-05-09T16:35:30.949Z,6.20
2023-05-09T16:39:20.478Z,8.80
2023-05-09T16:43:09.605Z,10.40
2023-05-09T16:47:05.410Z,12.20
2023-05-09T16:50:53.763Z,10.10
2023-05-09T16:54:34.481Z,5.30
2023-05-09T16:58:23.233Z,4.80
2023-05-09T17:02:12.816Z,8.80
2023-05-09T17:06:05.631Z,9.70
2023-05-09T17:09:48.994Z,7.90
2023-05-09T17:13:36.898Z,7.90
2023-05-09T17:17:05.513Z,4.60
2023-05-09T17:20:58.523Z,7.10
2023-05-09T17:24:22.881Z,7.60
2023-05-09T17:28:21.361Z,8.70
2023-05-09T17:31:59.353Z,8.60
2023-05-09T17:35:35.561Z,7.30
2023-05-09T17:39:15.959Z,4.70
2023-05-09T17:43:03.730Z,6.30
2023-05-09T17:46:32.650Z,7.00
2023-05-09T17:50:20.823Z,8.70
2023-05-09T17:53:49.506Z,8.10
2023-05-09T17:57:37.724Z,5.30
2023-05-09T18:01:12.511Z,3.60
2023-05-09T18:04:54.078Z,8.00
2023-05-09T18:08:32.509Z,6.30
2023-05-09T18:12:03.974Z,8.00
2023-05-09T18:16:03.447Z,5.10
2023-05-09T18:19:57.511Z,7.10
2023-05-09T18:24:01.097Z,11.80
2023-05-09T18:27:53.690Z,7.00
2023-05-09T18:31:24.858Z,5.60
2023-05-09T18:34:53.100Z,8.80
2023-05-09T18:38:42.209Z,7.80
2023-05-09T18:42:05.699Z,10.70
2023-05-09T18:45:54.426Z,8.90
2023-05-09T18:49:33.565Z,10.60
2023-05-09T18:53:04.935Z,10.40
2023-05-09T18:56:53.265Z,7.50
2023-05-09T19:00:35.715Z,8.00
2023-05-09T19:04:24.752Z,10.70
2023-05-09T19:07:52.433Z,15.50
2023-05-09T19:11:35.936Z,9.50
2023-05-09T19:15:26.239Z,15.80
2023-05-09T19:19:17.729Z,17.00
2023-05-09T19:23:10.626Z,10.10
2023-05-09T19:26:58.930Z,13.70
2023-05-09T19:31:10.401Z,7.00
2023-05-09T19:34:58.161Z,9.90
2023-05-09T19:38:31.716Z,8.50
2023-05-09T19:42:00.965Z,10.50
2023-05-09T19:45:36.797Z,9.10
2023-05-09T19:49:19.207Z,10.00
2023-05-09T19:52:42.382Z,10.40
2023-05-09T19:56:13.915Z,10.00
2023-05-09T19:59:55.350Z,8.10
2023-05-09T20:03:24.671Z,12.80
2023-05-09T20:07:12.755Z,9.50
2023-05-09T20:11:00.578Z,9.90
2023-05-09T20:14:30.090Z,6.70
2023-05-09T20:17:45.819Z,8.40
2023-05-09T20:21:11.931Z,9.20
2023-05-09T20:25:03.186Z,10.70
2023-05-09T20:28:45.472Z,8.40
2023-05-09T20:32:24.853Z,11.50
2023-05-09T20:35:57.408Z,7.90
2023-05-09T20:39:13.333Z,9.90
2023-05-09T20:43:07.195Z,8.00
2023-05-09T20:46:33.226Z,9.80
2023-05-09T20:50:14.404Z,10.50
2023-05-09T20:54:09.382Z,9.90
2023-05-09T20:57:59.475Z,7.50
2023-05-09T21:01:47.150Z,10.90
2023-05-09T21:05:29.566Z,10.70
2023-05-09T21:09:12.431Z,12.40
2023-05-09T21:12:49.703Z,11.00
2023-05-09T21:16:29.365Z,7.30
2023-05-09T21:19:52.762Z,12.50
2023-05-09T21:23:41.063Z,11.80
2023-05-09T21:27:29.086Z,9.20
2023-05-09T21:31:17.906Z,8.20
2023-05-09T21:35:06.353Z,8.70
2023-05-09T21:38:37.389Z,8.50
2023-05-09T21:42:19.591Z,9.80
2023-05-09T21:45:35.520Z,11.40
2023-05-09T21:48:45.561Z,10.30
2023-05-09T21:52:24.695Z,10.50
2023-05-09T21:56:12.909Z,10.60
2023-05-09T21:59:52.619Z,12.10
2023-05-09T22:03:11.351Z,11.20
2023-05-09T22:07:00.816Z,8.80
2023-05-09T22:10:07.355Z,8.40
2023-05-09T22:13:48.184Z,11.30
2023-05-09T22:17:26.689Z,8.30
2023-05-09T22:21:05.291Z,10.70
2023-05-09T22:24:18.866Z,10.50
2023-05-09T22:27:56.064Z,9.90
2023-05-09T22:31:41.740Z,10.50
2023-05-09T22:34:32.179Z,15.50
2023-05-09T22:37:54.560Z,11.70
2023-05-09T22:41:24.639Z,10.80
2023-05-09T22:44:56.311Z,9.90
2023-05-09T22:48:33.253Z,10.70
2023-05-09T22:52:21.255Z,11.20
2023-05-09T22:56:02.312Z,9.70
2023-05-09T22:59:21.529Z,7.80
2023-05-09T23:02:50.360Z,7.70
2023-05-09T23:05:50.682Z,8.20
2023-05-09T23:08:50.708Z,9.20
2023-05-09T23:11:34.080Z,6.60
2023-05-09T23:15:21.557Z,9.00
2023-05-09T23:18:29.435Z,11.90
2023-05-09T23:21:21.349Z,8.60
2023-05-09T23:24:51.456Z,9.90
2023-05-09T23:28:39.618Z,10.90
2023-05-09T23:32:14.703Z,9.00
2023-05-09T23:36:01.688Z,8.10
2023-05-09T23:39:05.287Z,9.40
2023-05-09T23:42:53.821Z,13.30
2023-05-09T23:45:45.677Z,11.80
2023-05-09T23:49:27.691Z,8.00
2023-05-09T23:52:29.735Z,7.90
2023-05-09T23:55:56.838Z,8.10
2023-05-09T23:58:46.951Z,8.70
